RORH(METAR)
06/17 12:00
RORH 170300Z 17009KT 9999 FEW015 BKNXXX 28/24 Q1010 RMK A2984=
戻る
トップページへ戻る
IMOC Co,.Ltd.